createdAt,value
2023-04-16T00:03:40.957Z,100490.16
2023-04-16T00:07:09.012Z,100493.55
2023-04-16T00:10:35.780Z,100492.13
2023-04-16T00:14:02.847Z,100493.55
2023-04-16T00:17:29.660Z,100489.49
2023-04-16T00:20:56.685Z,100490.41
2023-04-16T00:24:24.239Z,100492.04
2023-04-16T00:27:51.131Z,100495.24
2023-04-16T00:31:18.262Z,100496.22
2023-04-16T00:34:45.019Z,100492.02
2023-04-16T00:38:14.823Z,100496.20
2023-04-16T00:41:42.710Z,100492.67
2023-04-16T00:45:13.912Z,100498.13
2023-04-16T00:48:42.132Z,100498.31
2023-04-16T00:52:09.423Z,100499.98
2023-04-16T00:55:37.332Z,100500.56
2023-04-16T00:59:04.746Z,100505.62
2023-04-16T01:02:32.964Z,100504.15
2023-04-16T01:06:00.741Z,100507.41
2023-04-16T01:09:27.695Z,100505.09
2023-04-16T01:12:54.504Z,100503.64
2023-04-16T01:16:22.584Z,100501.51
2023-04-16T01:19:50.011Z,100506.34
2023-04-16T01:23:18.826Z,100504.98
2023-04-16T01:26:46.117Z,100502.60
2023-04-16T01:30:14.308Z,100502.31
2023-04-16T01:33:59.342Z,100502.92
2023-04-16T01:37:26.089Z,100504.35
2023-04-16T01:40:59.765Z,100509.09
2023-04-16T01:44:26.764Z,100509.35
2023-04-16T01:47:53.944Z,100512.58
2023-04-16T01:51:20.499Z,100509.11
2023-04-16T01:54:48.607Z,100511.52
2023-04-16T01:58:15.621Z,100511.96
2023-04-16T02:01:44.505Z,100507.32
2023-04-16T02:05:12.120Z,100515.95
2023-04-16T02:08:40.147Z,100515.25
2023-04-16T02:12:07.596Z,100516.08
2023-04-16T02:15:35.111Z,100519.49
2023-04-16T02:19:02.607Z,100519.44
2023-04-16T02:22:30.596Z,100520.42
2023-04-16T02:25:58.318Z,100520.38
2023-04-16T02:29:25.710Z,100522.79
2023-04-16T02:32:57.437Z,100525.49
2023-04-16T02:36:24.767Z,100524.16
2023-04-16T02:39:53.191Z,100525.82
2023-04-16T02:43:20.196Z,100528.34
2023-04-16T02:46:47.666Z,100530.29
2023-04-16T02:50:15.187Z,100529.65
2023-04-16T02:53:45.750Z,100529.12
2023-04-16T02:57:12.985Z,100532.84
2023-04-16T03:00:43.917Z,100533.59
2023-04-16T03:04:10.869Z,100532.85
2023-04-16T03:07:39.566Z,100536.24
2023-04-16T03:11:07.774Z,100537.86
2023-04-16T03:14:34.826Z,100540.50
2023-04-16T03:18:02.689Z,100544.49
2023-04-16T03:21:29.426Z,100546.19
2023-04-16T03:24:58.918Z,100545.50
2023-04-16T03:28:26.159Z,100544.84
2023-04-16T03:31:53.443Z,100549.60
2023-04-16T03:35:21.925Z,100552.77
2023-04-16T03:38:48.945Z,100556.04
2023-04-16T03:42:19.285Z,100558.11
2023-04-16T03:45:48.784Z,100564.27
2023-04-16T03:49:16.952Z,100563.58
2023-04-16T03:52:45.031Z,100562.96
2023-04-16T03:56:12.283Z,100568.07
2023-04-16T03:59:39.178Z,100570.80
2023-04-16T04:03:06.416Z,100576.16
2023-04-16T04:06:34.181Z,100575.98
2023-04-16T04:10:01.532Z,100580.77
2023-04-16T04:13:29.037Z,100584.39
2023-04-16T04:17:00.129Z,100590.42
2023-04-16T04:20:27.471Z,100592.27
2023-04-16T04:23:55.634Z,100594.27
2023-04-16T04:27:23.448Z,100600.65
2023-04-16T04:30:51.118Z,100600.46
2023-04-16T04:34:19.409Z,100601.96
2023-04-16T04:37:46.224Z,100605.27
2023-04-16T04:41:15.987Z,100606.23
2023-04-16T04:44:43.212Z,100608.52
2023-04-16T04:48:10.842Z,100610.05
2023-04-16T04:51:38.473Z,100611.88
2023-04-16T04:55:05.992Z,100612.23
2023-04-16T04:58:36.495Z,100612.67
2023-04-16T05:02:03.899Z,100612.94
2023-04-16T05:05:31.146Z,100619.56
2023-04-16T05:08:57.989Z,100617.63
2023-04-16T05:12:25.055Z,100621.76
2023-04-16T05:15:51.859Z,100619.87
2023-04-16T05:19:19.463Z,100626.55
2023-04-16T05:22:45.962Z,100631.18
2023-04-16T05:26:12.292Z,100632.63
2023-04-16T05:29:39.045Z,100632.00
2023-04-16T05:33:05.597Z,100635.58
2023-04-16T05:36:55.059Z,100640.50
2023-04-16T05:40:31.121Z,100646.98
2023-04-16T05:44:08.552Z,100649.84
2023-04-16T05:47:41.017Z,100651.98
2023-04-16T05:51:20.768Z,100654.10
2023-04-16T05:54:50.701Z,100650.86
2023-04-16T05:58:18.620Z,100656.09
2023-04-16T06:01:48.362Z,100655.63
2023-04-16T06:05:16.084Z,100656.84
2023-04-16T06:08:46.288Z,100657.75
2023-04-16T06:12:17.934Z,100659.30
2023-04-16T06:15:44.993Z,100662.89
2023-04-16T06:19:13.246Z,100667.38
2023-04-16T06:22:41.239Z,100673.19
2023-04-16T06:26:08.662Z,100677.18
2023-04-16T06:29:41.222Z,100682.60
2023-04-16T06:33:09.028Z,100685.99
2023-04-16T06:36:37.930Z,100688.80
2023-04-16T06:40:05.062Z,100686.88
2023-04-16T06:43:33.800Z,100689.80
2023-04-16T06:47:01.147Z,100690.91
2023-04-16T06:50:29.315Z,100701.61
2023-04-16T06:53:55.910Z,100695.91
2023-04-16T06:57:22.681Z,100698.68
2023-04-16T07:00:49.107Z,100700.31
2023-04-16T07:04:16.728Z,100703.75
2023-04-16T07:07:44.086Z,100704.57
2023-04-16T07:11:11.025Z,100707.52
2023-04-16T07:14:37.939Z,100710.25
2023-04-16T07:18:04.701Z,100713.29
2023-04-16T07:21:31.998Z,100717.33
2023-04-16T07:24:58.701Z,100716.64
2023-04-16T07:28:25.583Z,100721.55
2023-04-16T07:31:52.974Z,100725.70
2023-04-16T07:35:19.861Z,100728.84
2023-04-16T07:38:46.326Z,100733.31
2023-04-16T07:42:13.132Z,100731.27
2023-04-16T07:45:41.356Z,100739.61
2023-04-16T07:49:08.676Z,100742.74
2023-04-16T07:52:35.485Z,100740.25
2023-04-16T07:56:02.176Z,100741.95
2023-04-16T07:59:30.143Z,100741.79
2023-04-16T08:02:57.941Z,100747.83
2023-04-16T08:06:25.314Z,100746.65
2023-04-16T08:09:53.946Z,100747.91
2023-04-16T08:13:21.196Z,100749.15
2023-04-16T08:16:47.858Z,100752.14
2023-04-16T08:20:17.598Z,100755.30
2023-04-16T08:23:46.126Z,100759.20
2023-04-16T08:27:19.393Z,100759.73
2023-04-16T08:30:46.038Z,100764.09
2023-04-16T08:34:12.830Z,100763.21
2023-04-16T08:37:40.051Z,100770.41
2023-04-16T08:41:10.987Z,100775.39
2023-04-16T08:44:45.976Z,100777.77
2023-04-16T08:48:14.939Z,100784.02
2023-04-16T08:51:44.790Z,100784.30
2023-04-16T08:55:15.587Z,100787.61
2023-04-16T08:58:42.904Z,100792.44
2023-04-16T09:02:13.209Z,100799.09
2023-04-16T09:05:40.868Z,100804.27
2023-04-16T09:09:10.566Z,100805.73
2023-04-16T09:12:39.004Z,100808.65
2023-04-16T09:16:05.851Z,100810.95
2023-04-16T09:19:32.692Z,100813.61
2023-04-16T09:22:59.434Z,100817.48
2023-04-16T09:26:27.559Z,100818.85
2023-04-16T09:29:54.093Z,100820.69
2023-04-16T09:33:23.520Z,100825.02
2023-04-16T09:36:50.745Z,100826.69
2023-04-16T09:40:27.987Z,100829.55
2023-04-16T09:44:00.530Z,100832.61
2023-04-16T09:47:28.448Z,100829.52
2023-04-16T09:50:55.076Z,100832.23
2023-04-16T09:54:22.796Z,100833.41
2023-04-16T09:57:50.021Z,100832.32
2023-04-16T10:01:21.031Z,100841.88
2023-04-16T10:04:56.698Z,100843.80
2023-04-16T10:08:25.719Z,100850.89
2023-04-16T10:11:52.819Z,100854.84
2023-04-16T10:15:20.043Z,100852.75
2023-04-16T10:18:48.360Z,100851.97
2023-04-16T10:22:15.577Z,100851.39
2023-04-16T10:25:45.226Z,100855.68
2023-04-16T10:29:13.265Z,100852.67
2023-04-16T10:32:42.191Z,100855.86
2023-04-16T10:36:15.581Z,100858.84
2023-04-16T10:39:42.269Z,100860.20
2023-04-16T10:43:10.143Z,100862.68
2023-04-16T10:46:42.044Z,100863.27
2023-04-16T10:50:18.808Z,100863.73
2023-04-16T10:53:45.687Z,100867.40
2023-04-16T10:57:18.090Z,100870.42
2023-04-16T11:00:54.241Z,100869.91
2023-04-16T11:04:37.631Z,100876.27
2023-04-16T11:08:16.916Z,100878.18
2023-04-16T11:11:44.730Z,100878.52
2023-04-16T11:15:13.914Z,100878.95
2023-04-16T11:18:51.031Z,100879.92
2023-04-16T11:22:20.433Z,100883.46
2023-04-16T11:25:48.245Z,100887.41
2023-04-16T11:29:18.551Z,100890.07
2023-04-16T11:32:47.438Z,100895.95
2023-04-16T11:36:14.478Z,100901.94
2023-04-16T11:39:53.273Z,100899.68
2023-04-16T11:43:24.779Z,100901.37
2023-04-16T11:46:58.549Z,100906.70
2023-04-16T11:50:26.494Z,100906.60
2023-04-16T11:53:55.175Z,100911.91
2023-04-16T11:57:29.942Z,100914.13
2023-04-16T12:01:05.193Z,100914.61
2023-04-16T12:04:37.592Z,100917.96
2023-04-16T12:08:07.269Z,100919.50
2023-04-16T12:11:44.890Z,100917.76
2023-04-16T12:15:13.370Z,100918.72
2023-04-16T12:19:00.106Z,100920.65
2023-04-16T12:22:34.696Z,100923.38
2023-04-16T12:26:12.543Z,100920.27
2023-04-16T12:29:39.708Z,100924.38
2023-04-16T12:33:24.260Z,100927.64
2023-04-16T12:37:04.791Z,100927.66
2023-04-16T12:40:31.647Z,100927.85
2023-04-16T12:44:09.195Z,100925.40
2023-04-16T12:47:38.557Z,100925.24
2023-04-16T12:51:05.501Z,100925.09
2023-04-16T12:54:32.776Z,100929.59
2023-04-16T12:57:59.818Z,100933.08
2023-04-16T13:01:27.153Z,100938.19
2023-04-16T13:04:54.789Z,100936.77
2023-04-16T13:08:22.973Z,100938.27
2023-04-16T13:11:49.533Z,100938.27
2023-04-16T13:15:16.653Z,100937.63
2023-04-16T13:18:44.100Z,100941.25
2023-04-16T13:22:11.598Z,100943.32
2023-04-16T13:25:39.101Z,100940.67
2023-04-16T13:29:05.903Z,100943.95
2023-04-16T13:32:33.009Z,100942.48
2023-04-16T13:36:01.440Z,100945.16
2023-04-16T13:39:28.895Z,100942.38
2023-04-16T13:42:58.425Z,100947.40
2023-04-16T13:46:26.760Z,100939.17
2023-04-16T13:49:54.911Z,100945.08
2023-04-16T13:53:22.363Z,100944.15
2023-04-16T13:56:51.547Z,100944.96
2023-04-16T14:00:20.612Z,100944.16
2023-04-16T14:03:47.573Z,100945.17
2023-04-16T14:07:23.024Z,100944.20
2023-04-16T14:10:56.388Z,100944.48
2023-04-16T14:14:24.690Z,100945.04
2023-04-16T14:17:55.181Z,100945.20
2023-04-16T14:21:22.399Z,100948.85
2023-04-16T14:24:50.405Z,100952.20
2023-04-16T14:28:17.757Z,100960.03
2023-04-16T14:31:50.588Z,100961.41
2023-04-16T14:35:18.174Z,100958.39
2023-04-16T14:38:54.141Z,100957.86
2023-04-16T14:42:22.892Z,100956.52
2023-04-16T14:45:51.345Z,100959.61
2023-04-16T14:49:18.238Z,100966.34
2023-04-16T14:52:45.275Z,100966.34
2023-04-16T14:56:13.143Z,100963.95
2023-04-16T14:59:40.046Z,100964.90
2023-04-16T15:03:07.213Z,100967.08
2023-04-16T15:06:36.005Z,100967.11
2023-04-16T15:10:03.186Z,100971.95
2023-04-16T15:13:34.117Z,100972.33
2023-04-16T15:17:01.190Z,100974.54
2023-04-16T15:20:27.930Z,100975.45
2023-04-16T15:23:55.521Z,100980.84
2023-04-16T15:27:22.453Z,100984.60
2023-04-16T15:30:49.001Z,100985.96
2023-04-16T15:34:16.385Z,100986.33
2023-04-16T15:37:44.469Z,100989.36
2023-04-16T15:41:12.170Z,100991.30
2023-04-16T15:44:42.226Z,100992.58
2023-04-16T15:48:13.075Z,100994.64
2023-04-16T15:51:39.955Z,100997.20
2023-04-16T15:55:10.897Z,100995.80
2023-04-16T15:58:38.975Z,100997.98
2023-04-16T16:02:06.388Z,101003.70
2023-04-16T16:05:33.175Z,101006.27
2023-04-16T16:08:59.938Z,101006.58
2023-04-16T16:12:27.549Z,101010.02
2023-04-16T16:15:55.343Z,101013.05
2023-04-16T16:19:22.335Z,101012.94
2023-04-16T16:22:53.192Z,101016.38
2023-04-16T16:26:23.163Z,101017.05
2023-04-16T16:29:50.987Z,101016.77
2023-04-16T16:33:18.929Z,101018.52
2023-04-16T16:36:47.033Z,101029.40
2023-04-16T16:40:14.497Z,101030.20
2023-04-16T16:43:41.237Z,101027.12
2023-04-16T16:47:09.136Z,101030.71
2023-04-16T16:50:36.414Z,101031.82
2023-04-16T16:54:05.231Z,101032.32
2023-04-16T16:57:32.296Z,101035.73
2023-04-16T17:00:59.807Z,101046.31
2023-04-16T17:04:26.659Z,101046.57
2023-04-16T17:07:53.652Z,101049.96
2023-04-16T17:11:20.301Z,101053.52
2023-04-16T17:14:51.168Z,101052.43
2023-04-16T17:18:21.763Z,101055.48
2023-04-16T17:21:49.338Z,101059.02
2023-04-16T17:25:16.959Z,101059.89
2023-04-16T17:28:44.086Z,101064.14
2023-04-16T17:32:12.010Z,101070.65
2023-04-16T17:35:41.378Z,101069.92
2023-04-16T17:39:10.558Z,101072.33
2023-04-16T17:42:41.508Z,101075.72
2023-04-16T17:46:15.324Z,101078.79
2023-04-16T17:49:48.220Z,101081.77
2023-04-16T17:53:16.364Z,101086.81
2023-04-16T17:56:46.304Z,101088.84
2023-04-16T18:00:14.987Z,101092.61
2023-04-16T18:03:48.439Z,101090.98
2023-04-16T18:07:16.109Z,101097.42
2023-04-16T18:10:43.939Z,101098.77
2023-04-16T18:14:14.346Z,101099.32
2023-04-16T18:17:43.326Z,101104.73
2023-04-16T18:21:14.896Z,101113.57
2023-04-16T18:24:43.647Z,101116.90
2023-04-16T18:28:14.044Z,101122.33
2023-04-16T18:31:43.046Z,101126.24
2023-04-16T18:35:11.900Z,101124.48
2023-04-16T18:38:52.982Z,101134.51
2023-04-16T18:42:29.912Z,101135.05
2023-04-16T18:45:56.968Z,101135.27
2023-04-16T18:49:23.813Z,101134.92
2023-04-16T18:52:52.014Z,101138.66
2023-04-16T18:56:26.134Z,101139.05
2023-04-16T18:59:54.673Z,101139.45
2023-04-16T19:03:22.891Z,101141.90
2023-04-16T19:06:50.247Z,101141.68
2023-04-16T19:10:19.073Z,101139.52
2023-04-16T19:13:48.564Z,101137.41
2023-04-16T19:17:19.687Z,101134.65
2023-04-16T19:20:46.663Z,101133.27
2023-04-16T19:24:15.144Z,101135.84
2023-04-16T19:27:42.137Z,101132.73
2023-04-16T19:31:09.990Z,101133.02
2023-04-16T19:34:36.723Z,101130.68
2023-04-16T19:38:04.068Z,101131.38
2023-04-16T19:41:33.295Z,101136.45
2023-04-16T19:45:10.286Z,101136.66
2023-04-16T19:48:37.392Z,101140.64
2023-04-16T19:52:05.931Z,101139.95
2023-04-16T19:55:33.142Z,101142.71
2023-04-16T19:59:01.006Z,101144.17
2023-04-16T20:02:30.157Z,101147.71
2023-04-16T20:05:57.245Z,101151.84
2023-04-16T20:09:26.751Z,101157.11
2023-04-16T20:12:54.413Z,101155.98
2023-04-16T20:16:26.232Z,101155.48
2023-04-16T20:19:53.456Z,101158.23
2023-04-16T20:23:33.191Z,101159.08
2023-04-16T20:27:02.311Z,101160.28
2023-04-16T20:30:31.176Z,101160.95
2023-04-16T20:33:59.157Z,101161.33
2023-04-16T20:37:26.741Z,101163.27
2023-04-16T20:41:06.524Z,101168.92
2023-04-16T20:44:41.291Z,101176.61
2023-04-16T20:48:08.927Z,101179.83
2023-04-16T20:51:38.420Z,101184.64
2023-04-16T20:55:06.114Z,101183.00
2023-04-16T20:58:33.736Z,101184.13
2023-04-16T21:02:02.055Z,101186.06
2023-04-16T21:05:30.408Z,101183.65
2023-04-16T21:08:57.813Z,101183.93
2023-04-16T21:12:26.360Z,101185.16
2023-04-16T21:15:53.743Z,101185.63
2023-04-16T21:19:26.628Z,101186.63
2023-04-16T21:22:56.961Z,101185.80
2023-04-16T21:26:25.796Z,101185.11
2023-04-16T21:29:53.988Z,101189.69
2023-04-16T21:33:23.301Z,101191.00
2023-04-16T21:36:51.350Z,101190.00
2023-04-16T21:40:19.551Z,101188.80
2023-04-16T21:43:47.381Z,101186.67
2023-04-16T21:47:14.693Z,101191.10
2023-04-16T21:50:41.919Z,101188.98
2023-04-16T21:54:09.026Z,101191.16
2023-04-16T21:57:36.388Z,101192.09
2023-04-16T22:01:03.396Z,101190.55
2023-04-16T22:04:37.223Z,101192.64
2023-04-16T22:08:13.768Z,101187.92
2023-04-16T22:11:48.390Z,101184.38
2023-04-16T22:15:15.730Z,101185.83
2023-04-16T22:18:42.943Z,101187.99
2023-04-16T22:22:13.501Z,101187.88
2023-04-16T22:25:40.886Z,101185.54
2023-04-16T22:29:07.869Z,101187.78
2023-04-16T22:32:34.531Z,101187.42
2023-04-16T22:36:02.376Z,101183.88
2023-04-16T22:39:29.895Z,101184.27
2023-04-16T22:42:56.595Z,101186.25
2023-04-16T22:46:24.989Z,101187.23
2023-04-16T22:49:51.530Z,101193.03
2023-04-16T22:53:18.459Z,101190.59
2023-04-16T22:56:47.119Z,101190.29
2023-04-16T23:00:18.196Z,101191.64
2023-04-16T23:03:45.487Z,101192.77
2023-04-16T23:07:12.228Z,101194.34
2023-04-16T23:10:39.033Z,101196.26
2023-04-16T23:14:06.338Z,101198.98
2023-04-16T23:17:33.876Z,101197.05
2023-04-16T23:21:01.005Z,101197.73
2023-04-16T23:24:28.197Z,101195.45
2023-04-16T23:27:55.255Z,101198.40
2023-04-16T23:31:21.731Z,101193.55
2023-04-16T23:34:48.363Z,101197.66
2023-04-16T23:38:14.865Z,101196.58
2023-04-16T23:41:42.229Z,101196.13
2023-04-16T23:45:11.261Z,101197.43
2023-04-16T23:48:38.056Z,101204.16
2023-04-16T23:52:04.813Z,101204.83
2023-04-16T23:55:31.531Z,101204.23
2023-04-16T23:58:58.200Z,101205.36
